Terminal Aerodrome Forecast
Issued by NWS Grand Rapids, MI

Home | Current Version | Previous Version | Text Only | Print | Product List | Glossary On
Versions: 1 2 3 4 5 6 7 8 9 10 11 12 13 14 15 16 17 18 19
000
FTUS43 KGRR 162122 AAC
TAFGRR
TAF AMD
KGRR 162122Z 1621/1718 08008KT 2SM -RA BR OVC015
     FM162200 11007KT 1 1/2SM -RA BR OVC004
     FM171300 26006KT 3/4SM BR VCSH OVC002=

USA.gov is the U.S. government's official web portal to all federal, state and local government web resources and services.